sensor_id;sensor_type;location;lat;lon;timestamp;pressure;altitude;pressure_sealevel;temperature;humidity
66857;BME280;53766;50.280;19.160;2023-01-30T00:01:16;98503.06;;;15.07;43.09
66857;BME280;53766;50.280;19.160;2023-01-30T00:03:44;98490.00;;;15.05;43.46
66857;BME280;53766;50.280;19.160;2023-01-30T00:06:12;98490.00;;;15.05;43.27
66857;BME280;53766;50.280;19.160;2023-01-30T00:08:39;98478.75;;;15.03;43.19
66857;BME280;53766;50.280;19.160;2023-01-30T00:11:08;98467.13;;;15.04;43.18
66857;BME280;53766;50.280;19.160;2023-01-30T00:13:36;98461.81;;;15.04;43.23
66857;BME280;53766;50.280;19.160;2023-01-30T00:16:04;98464.47;;;15.04;43.39
66857;BME280;53766;50.280;19.160;2023-01-30T00:18:31;98457.53;;;15.03;43.13
66857;BME280;53766;50.280;19.160;2023-01-30T00:21:02;98443.25;;;15.04;43.06
66857;BME280;53766;50.280;19.160;2023-01-30T00:23:30;98440.59;;;15.04;43.29
66857;BME280;53766;50.280;19.160;2023-01-30T00:25:59;98429.56;;;15.00;43.21
66857;BME280;53766;50.280;19.160;2023-01-30T00:28:26;98420.41;;;15.03;43.21
66857;BME280;53766;50.280;19.160;2023-01-30T00:30:54;98423.41;;;15.00;43.39
66857;BME280;53766;50.280;19.160;2023-01-30T00:33:23;98414.44;;;15.01;42.91
66857;BME280;53766;50.280;19.160;2023-01-30T00:35:51;98414.44;;;15.01;43.26
66857;BME280;53766;50.280;19.160;2023-01-30T00:38:19;98402.19;;;15.00;43.20
66857;BME280;53766;50.280;19.160;2023-01-30T00:40:47;98410.13;;;15.00;43.33
66857;BME280;53766;50.280;19.160;2023-01-30T00:43:17;98407.47;;;15.00;43.06
66857;BME280;53766;50.280;19.160;2023-01-30T00:46:08;98407.47;;;15.00;43.23
66857;BME280;53766;50.280;19.160;2023-01-30T00:48:54;98410.13;;;15.00;43.14
66857;BME280;53766;50.280;19.160;2023-01-30T00:51:21;98402.19;;;15.00;43.20
66857;BME280;53766;50.280;19.160;2023-01-30T00:53:48;98398.88;;;14.98;43.00
66857;BME280;53766;50.280;19.160;2023-01-30T00:56:15;98403.38;;;14.97;43.08
66857;BME280;53766;50.280;19.160;2023-01-30T00:58:42;98386.66;;;14.97;43.07
66857;BME280;53766;50.280;19.160;2023-01-30T01:01:08;98391.94;;;14.97;43.18
66857;BME280;53766;50.280;19.160;2023-01-30T01:03:35;98379.69;;;14.96;43.23
66857;BME280;53766;50.280;19.160;2023-01-30T01:06:03;98385.63;;;14.98;43.04
66857;BME280;53766;50.280;19.160;2023-01-30T01:08:29;98387.63;;;14.96;43.27
66857;BME280;53766;50.280;19.160;2023-01-30T01:10:57;98380.53;;;14.96;42.94
66857;BME280;53766;50.280;19.160;2023-01-30T01:13:24;98363.97;;;14.94;43.20
66857;BME280;53766;50.280;19.160;2023-01-30T01:15:51;98362.13;;;14.95;43.28
66857;BME280;53766;50.280;19.160;2023-01-30T01:18:17;98357.84;;;14.94;43.03
66857;BME280;53766;50.280;19.160;2023-01-30T01:20:45;98347.25;;;14.94;43.10
66857;BME280;53766;50.280;19.160;2023-01-30T01:23:12;98349.91;;;14.94;43.33
66857;BME280;53766;50.280;19.160;2023-01-30T01:25:39;98336.81;;;14.92;43.09
66857;BME280;53766;50.280;19.160;2023-01-30T01:28:05;98333.16;;;14.93;43.27
66857;BME280;53766;50.280;19.160;2023-01-30T01:30:33;98327.03;;;14.93;43.26
66857;BME280;53766;50.280;19.160;2023-01-30T01:33:00;98321.72;;;14.93;43.34
66857;BME280;53766;50.280;19.160;2023-01-30T01:35:27;98324.38;;;14.93;43.03
66857;BME280;53766;50.280;19.160;2023-01-30T01:37:54;98326.22;;;14.92;43.28
66857;BME280;53766;50.280;19.160;2023-01-30T01:40:22;98328.03;;;14.92;43.18
66857;BME280;53766;50.280;19.160;2023-01-30T01:43:29;98319.25;;;14.91;42.96
66857;BME280;53766;50.280;19.160;2023-01-30T01:46:01;98312.13;;;14.92;43.41
66857;BME280;53766;50.280;19.160;2023-01-30T01:48:40;98314.97;;;14.90;43.22
66857;BME280;53766;50.280;19.160;2023-01-30T01:51:16;98299.22;;;14.89;42.96
66857;BME280;53766;50.280;19.160;2023-01-30T01:53:52;98297.22;;;14.91;43.05
66857;BME280;53766;50.280;19.160;2023-01-30T01:56:21;98293.91;;;14.89;43.15
66857;BME280;53766;50.280;19.160;2023-01-30T01:58:57;98275.75;;;14.86;43.37
66857;BME280;53766;50.280;19.160;2023-01-30T02:01:28;98267.78;;;14.86;43.50
66857;BME280;53766;50.280;19.160;2023-01-30T02:03:58;98266.13;;;14.85;43.15
66857;BME280;53766;50.280;19.160;2023-01-30T02:06:28;98260.00;;;14.84;43.31
66857;BME280;53766;50.280;19.160;2023-01-30T02:08:58;98253.91;;;14.84;43.39
66857;BME280;53766;50.280;19.160;2023-01-30T02:11:37;98243.28;;;14.84;43.29
66857;BME280;53766;50.280;19.160;2023-01-30T02:14:05;98238.97;;;14.82;43.16
66857;BME280;53766;50.280;19.160;2023-01-30T02:16:35;98235.03;;;14.78;43.16
66857;BME280;53766;50.280;19.160;2023-01-30T02:22:16;98226.09;;;14.79;43.47
66857;BME280;53766;50.280;19.160;2023-01-30T02:35:59;98199.97;;;14.76;43.10
66857;BME280;53766;50.280;19.160;2023-01-30T02:38:52;98199.13;;;14.76;43.34
66857;BME280;53766;50.280;19.160;2023-01-30T02:41:34;98195.50;;;14.77;43.23
66857;BME280;53766;50.280;19.160;2023-01-30T02:44:24;98187.72;;;14.75;43.24
66857;BME280;53766;50.280;19.160;2023-01-30T02:49:28;98166.88;;;14.72;43.52
66857;BME280;53766;50.280;19.160;2023-01-30T02:51:59;98156.28;;;14.72;43.15
66857;BME280;53766;50.280;19.160;2023-01-30T02:54:27;98161.59;;;14.72;43.53
66857;BME280;53766;50.280;19.160;2023-01-30T02:56:57;98152.78;;;14.72;43.17
66857;BME280;53766;50.280;19.160;2023-01-30T02:59:38;98143.03;;;14.72;43.61
66857;BME280;53766;50.280;19.160;2023-01-30T03:05:21;98168.53;;;14.73;43.41
66857;BME280;53766;50.280;19.160;2023-01-30T03:13:04;98147.06;;;14.68;43.16
66857;BME280;53766;50.280;19.160;2023-01-30T03:15:39;98146.03;;;14.69;43.28
66857;BME280;53766;50.280;19.160;2023-01-30T03:18:08;98123.22;;;14.68;43.15
66857;BME280;53766;50.280;19.160;2023-01-30T03:20:37;98139.09;;;14.68;43.42
66857;BME280;53766;50.280;19.160;2023-01-30T03:23:06;98141.13;;;14.66;43.52
66857;BME280;53766;50.280;19.160;2023-01-30T03:25:35;98141.94;;;14.67;43.38
66857;BME280;53766;50.280;19.160;2023-01-30T03:28:03;98130.53;;;14.66;43.26
66857;BME280;53766;50.280;19.160;2023-01-30T03:30:31;98140.31;;;14.66;43.22
66857;BME280;53766;50.280;19.160;2023-01-30T03:32:58;98135.00;;;14.66;43.36
66857;BME280;53766;50.280;19.160;2023-01-30T03:35:26;98132.53;;;14.64;43.35
66857;BME280;53766;50.280;19.160;2023-01-30T03:37:57;98127.25;;;14.64;43.18
66857;BME280;53766;50.280;19.160;2023-01-30T03:40:24;98128.88;;;14.65;43.46
66857;BME280;53766;50.280;19.160;2023-01-30T03:42:51;98127.25;;;14.64;43.39
66857;BME280;53766;50.280;19.160;2023-01-30T03:45:17;98118.66;;;14.62;43.51
66857;BME280;53766;50.280;19.160;2023-01-30T03:47:45;98106.03;;;14.64;43.46
66857;BME280;53766;50.280;19.160;2023-01-30T03:50:12;98112.31;;;14.63;43.25
66857;BME280;53766;50.280;19.160;2023-01-30T03:52:39;98105.41;;;14.62;43.10
66857;BME280;53766;50.280;19.160;2023-01-30T03:55:06;98098.25;;;14.63;42.95
66857;BME280;53766;50.280;19.160;2023-01-30T03:57:33;98083.16;;;14.63;43.21
66857;BME280;53766;50.280;19.160;2023-01-30T04:00:00;98075.44;;;14.62;43.32
66857;BME280;53766;50.280;19.160;2023-01-30T04:02:27;98088.47;;;14.63;43.33
66857;BME280;53766;50.280;19.160;2023-01-30T04:04:54;98075.22;;;14.63;43.40
66857;BME280;53766;50.280;19.160;2023-01-30T04:07:21;98067.47;;;14.62;42.98
66857;BME280;53766;50.280;19.160;2023-01-30T04:09:48;98058.69;;;14.61;43.12
66857;BME280;53766;50.280;19.160;2023-01-30T04:12:14;98060.34;;;14.62;43.36
66857;BME280;53766;50.280;19.160;2023-01-30T04:14:41;98043.81;;;14.60;43.48
66857;BME280;53766;50.280;19.160;2023-01-30T04:17:08;98050.13;;;14.59;43.15
66857;BME280;53766;50.280;19.160;2023-01-30T04:19:35;98036.88;;;14.59;43.15
66857;BME280;53766;50.280;19.160;2023-01-30T04:22:01;98041.34;;;14.58;43.31
66857;BME280;53766;50.280;19.160;2023-01-30T04:24:28;98023.63;;;14.59;43.42
66857;BME280;53766;50.280;19.160;2023-01-30T04:26:55;98028.94;;;14.59;43.40
66857;BME280;53766;50.280;19.160;2023-01-30T04:29:22;98018.31;;;14.59;43.27
66857;BME280;53766;50.280;19.160;2023-01-30T04:31:49;98022.78;;;14.58;43.20
66857;BME280;53766;50.280;19.160;2023-01-30T04:34:16;98027.28;;;14.58;43.03
66857;BME280;53766;50.280;19.160;2023-01-30T04:36:43;98021.97;;;14.58;43.10
66857;BME280;53766;50.280;19.160;2023-01-30T04:39:10;98020.34;;;14.57;43.44
66857;BME280;53766;50.280;19.160;2023-01-30T04:41:36;98024.00;;;14.56;43.32
66857;BME280;53766;50.280;19.160;2023-01-30T04:44:03;98015.84;;;14.57;43.28
66857;BME280;53766;50.280;19.160;2023-01-30T04:46:30;98019.31;;;14.58;43.31
66857;BME280;53766;50.280;19.160;2023-01-30T04:48:57;98021.97;;;14.58;43.15
66857;BME280;53766;50.280;19.160;2023-01-30T04:51:24;98022.38;;;14.55;43.39
66857;BME280;53766;50.280;19.160;2023-01-30T04:53:51;98019.50;;;14.56;43.16
66857;BME280;53766;50.280;19.160;2023-01-30T04:56:18;98018.69;;;14.56;43.29
66857;BME280;53766;50.280;19.160;2023-01-30T04:58:45;98007.28;;;14.55;43.04
66857;BME280;53766;50.280;19.160;2023-01-30T05:03:51;97995.88;;;14.55;42.95
66857;BME280;53766;50.280;19.160;2023-01-30T05:06:19;97990.56;;;14.55;42.85
66857;BME280;53766;50.280;19.160;2023-01-30T05:08:53;97986.41;;;14.52;43.07
66857;BME280;53766;50.280;19.160;2023-01-30T05:11:21;97972.16;;;14.53;43.13
66857;BME280;53766;50.280;19.160;2023-01-30T05:13:49;97976.66;;;14.53;43.05
66857;BME280;53766;50.280;19.160;2023-01-30T05:16:17;97979.31;;;14.53;43.22
66857;BME280;53766;50.280;19.160;2023-01-30T05:18:44;97975.81;;;14.52;43.28
66857;BME280;53766;50.280;19.160;2023-01-30T05:21:14;97974.00;;;14.53;43.07
66857;BME280;53766;50.280;19.160;2023-01-30T05:23:41;97975.00;;;14.52;43.28
66857;BME280;53766;50.280;19.160;2023-01-30T05:26:08;97975.00;;;14.52;43.08
66857;BME280;53766;50.280;19.160;2023-01-30T05:28:35;97957.47;;;14.51;42.88
66857;BME280;53766;50.280;19.160;2023-01-30T05:31:11;97955.44;;;14.53;43.17
66857;BME280;53766;50.280;19.160;2023-01-30T05:33:40;97960.47;;;14.48;42.88
66857;BME280;53766;50.280;19.160;2023-01-30T05:36:07;97953.16;;;14.50;42.97
66857;BME280;53766;50.280;19.160;2023-01-30T05:38:41;97946.88;;;14.51;42.82
66857;BME280;53766;50.280;19.160;2023-01-30T05:41:09;97935.81;;;14.47;43.27
66857;BME280;53766;50.280;19.160;2023-01-30T05:43:36;97949.69;;;14.49;42.81
66857;BME280;53766;50.280;19.160;2023-01-30T05:46:04;97961.09;;;14.50;42.73
66857;BME280;53766;50.280;19.160;2023-01-30T05:48:32;97933.81;;;14.49;42.97
66857;BME280;53766;50.280;19.160;2023-01-30T05:50:59;97926.66;;;14.50;42.90
66857;BME280;53766;50.280;19.160;2023-01-30T05:53:28;97908.50;;;14.47;42.92
66857;BME280;53766;50.280;19.160;2023-01-30T05:55:57;97897.91;;;14.47;43.05
66857;BME280;53766;50.280;19.160;2023-01-30T05:58:26;97898.72;;;14.47;42.74
66857;BME280;53766;50.280;19.160;2023-01-30T06:00:58;97896.25;;;14.46;43.27
66857;BME280;53766;50.280;19.160;2023-01-30T06:03:25;97887.31;;;14.47;43.07
66857;BME280;53766;50.280;19.160;2023-01-30T06:05:51;97890.97;;;14.46;42.87
66857;BME280;53766;50.280;19.160;2023-01-30T06:08:18;97890.97;;;14.46;42.93
66857;BME280;53766;50.280;19.160;2023-01-30T06:10:45;97877.94;;;14.44;43.11
66857;BME280;53766;50.280;19.160;2023-01-30T06:13:12;97877.09;;;14.44;42.82
66857;BME280;53766;50.280;19.160;2023-01-30T06:15:39;97880.34;;;14.46;43.06
66857;BME280;53766;50.280;19.160;2023-01-30T06:18:06;97888.53;;;14.44;43.04
66857;BME280;53766;50.280;19.160;2023-01-30T06:20:33;97881.38;;;14.45;42.98
66857;BME280;53766;50.280;19.160;2023-01-30T06:23:00;97858.34;;;14.45;43.09
66857;BME280;53766;50.280;19.160;2023-01-30T06:25:27;97855.06;;;14.43;43.12
66857;BME280;53766;50.280;19.160;2023-01-30T06:27:54;97855.88;;;14.44;43.05
66857;BME280;53766;50.280;19.160;2023-01-30T06:30:20;97859.56;;;14.43;43.14
66857;BME280;53766;50.280;19.160;2023-01-30T06:32:50;97875.28;;;14.44;43.38
66857;BME280;53766;50.280;19.160;2023-01-30T06:35:17;97862.84;;;14.45;43.40
66857;BME280;53766;50.280;19.160;2023-01-30T06:37:47;97859.56;;;14.43;43.76
66857;BME280;53766;50.280;19.160;2023-01-30T06:40:14;97855.88;;;14.44;43.79
66857;BME280;53766;50.280;19.160;2023-01-30T06:42:47;97862.84;;;14.45;43.88
66857;BME280;53766;50.280;19.160;2023-01-30T06:45:16;97859.56;;;14.43;44.45
66857;BME280;53766;50.280;19.160;2023-01-30T06:47:53;97855.06;;;14.43;44.37
66857;BME280;53766;50.280;19.160;2023-01-30T06:50:24;97853.06;;;14.45;44.49
66857;BME280;53766;50.280;19.160;2023-01-30T06:52:52;97841.00;;;14.43;44.35
66857;BME280;53766;50.280;19.160;2023-01-30T06:55:22;97842.63;;;14.44;44.25
66857;BME280;53766;50.280;19.160;2023-01-30T06:57:49;97839.19;;;14.43;44.25
66857;BME280;53766;50.280;19.160;2023-01-30T07:00:18;97842.03;;;14.42;44.19
66857;BME280;53766;50.280;19.160;2023-01-30T07:02:46;97837.34;;;14.44;44.34
66857;BME280;53766;50.280;19.160;2023-01-30T07:05:12;97838.38;;;14.43;44.59
66857;BME280;53766;50.280;19.160;2023-01-30T07:07:40;97849.16;;;14.41;44.30
66857;BME280;53766;50.280;19.160;2023-01-30T07:10:07;97837.56;;;14.42;44.52
66857;BME280;53766;50.280;19.160;2023-01-30T07:12:35;97834.09;;;14.42;44.05
66857;BME280;53766;50.280;19.160;2023-01-30T07:15:03;97825.31;;;14.41;44.31
66857;BME280;53766;50.280;19.160;2023-01-30T07:17:32;97819.19;;;14.40;44.08
66857;BME280;53766;50.280;19.160;2023-01-30T07:19:59;97807.59;;;14.42;44.32
66857;BME280;53766;50.280;19.160;2023-01-30T07:22:26;97794.72;;;14.38;44.43
66857;BME280;53766;50.280;19.160;2023-01-30T07:24:52;97797.38;;;14.38;44.34
66857;BME280;53766;50.280;19.160;2023-01-30T07:27:19;97793.09;;;14.37;44.01
66857;BME280;53766;50.280;19.160;2023-01-30T07:29:46;97790.44;;;14.37;44.21
66857;BME280;53766;50.280;19.160;2023-01-30T07:32:16;97793.91;;;14.38;44.04
66857;BME280;53766;50.280;19.160;2023-01-30T07:34:45;97775.56;;;14.36;44.24
66857;BME280;53766;50.280;19.160;2023-01-30T07:37:12;97786.16;;;14.36;43.84
66857;BME280;53766;50.280;19.160;2023-01-30T07:39:39;97779.22;;;14.35;44.12
66857;BME280;53766;50.280;19.160;2023-01-30T07:42:07;97786.16;;;14.36;44.31
66857;BME280;53766;50.280;19.160;2023-01-30T07:44:34;97791.44;;;14.36;44.17
66857;BME280;53766;50.280;19.160;2023-01-30T07:47:01;97784.53;;;14.35;43.99
66857;BME280;53766;50.280;19.160;2023-01-30T07:49:28;97781.88;;;14.35;44.00
66857;BME280;53766;50.280;19.160;2023-01-30T07:51:56;97781.25;;;14.33;43.81
66857;BME280;53766;50.280;19.160;2023-01-30T07:54:23;97788.16;;;14.34;44.09
66857;BME280;53766;50.280;19.160;2023-01-30T07:56:50;97775.94;;;14.33;43.80
66857;BME280;53766;50.280;19.160;2023-01-30T07:59:17;97770.66;;;14.33;44.00
66857;BME280;53766;50.280;19.160;2023-01-30T08:01:44;97776.75;;;14.34;43.64
66857;BME280;53766;50.280;19.160;2023-01-30T08:04:10;97761.69;;;14.34;43.78
66857;BME280;53766;50.280;19.160;2023-01-30T08:06:37;97766.97;;;14.34;43.99
66857;BME280;53766;50.280;19.160;2023-01-30T08:09:05;97772.50;;;14.33;43.90
66857;BME280;53766;50.280;19.160;2023-01-30T08:11:33;97779.59;;;14.32;43.91
66857;BME280;53766;50.280;19.160;2023-01-30T08:14:01;97784.09;;;14.32;43.77
66857;BME280;53766;50.280;19.160;2023-01-30T08:16:28;97784.09;;;14.32;43.74
66857;BME280;53766;50.280;19.160;2023-01-30T08:18:57;97783.28;;;14.31;43.77
66857;BME280;53766;50.280;19.160;2023-01-30T08:21:24;97762.09;;;14.31;43.84
66857;BME280;53766;50.280;19.160;2023-01-30T08:23:51;97744.53;;;14.30;43.57
66857;BME280;53766;50.280;19.160;2023-01-30T08:26:18;97754.13;;;14.31;43.80
66857;BME280;53766;50.280;19.160;2023-01-30T08:28:46;97746.19;;;14.31;43.81
66857;BME280;53766;50.280;19.160;2023-01-30T08:31:15;97740.88;;;14.31;43.72
66857;BME280;53766;50.280;19.160;2023-01-30T08:33:42;97747.19;;;14.30;43.49
66857;BME280;53766;50.280;19.160;2023-01-30T08:36:09;97733.94;;;14.30;43.51
66857;BME280;53766;50.280;19.160;2023-01-30T08:38:36;97720.06;;;14.28;43.53
66857;BME280;53766;50.280;19.160;2023-01-30T08:41:04;97729.03;;;14.27;43.61
66857;BME280;53766;50.280;19.160;2023-01-30T08:43:32;97739.63;;;14.27;43.57
66857;BME280;53766;50.280;19.160;2023-01-30T08:46:00;97734.34;;;14.27;43.53
66857;BME280;53766;50.280;19.160;2023-01-30T08:48:27;97739.63;;;14.27;43.37
66857;BME280;53766;50.280;19.160;2023-01-30T08:51:02;97737.00;;;14.27;43.62
66857;BME280;53766;50.280;19.160;2023-01-30T08:53:29;97738.00;;;14.26;43.40
66857;BME280;53766;50.280;19.160;2023-01-30T08:55:56;97732.91;;;14.25;43.18
66857;BME280;53766;50.280;19.160;2023-01-30T08:58:23;97736.38;;;14.25;43.35
66857;BME280;53766;50.280;19.160;2023-01-30T09:00:50;97741.66;;;14.25;43.45
66857;BME280;53766;50.280;19.160;2023-01-30T09:03:17;97740.03;;;14.24;43.33
66857;BME280;53766;50.280;19.160;2023-01-30T09:05:44;97731.06;;;14.25;43.05
66857;BME280;53766;50.280;19.160;2023-01-30T09:08:11;97727.78;;;14.23;43.28
66857;BME280;53766;50.280;19.160;2023-01-30T09:10:39;97723.31;;;14.24;42.94
66857;BME280;53766;50.280;19.160;2023-01-30T09:13:08;97711.09;;;14.23;43.00
66857;BME280;53766;50.280;19.160;2023-01-30T09:15:35;97717.19;;;14.23;42.92
66857;BME280;53766;50.280;19.160;2023-01-30T09:18:03;97709.44;;;14.22;42.91
66857;BME280;53766;50.280;19.160;2023-01-30T09:20:31;97710.28;;;14.22;43.01
66857;BME280;53766;50.280;19.160;2023-01-30T09:22:58;97707.00;;;14.20;43.05
66857;BME280;53766;50.280;19.160;2023-01-30T09:25:25;97698.44;;;14.18;43.15
66857;BME280;53766;50.280;19.160;2023-01-30T09:27:52;97694.34;;;14.15;42.56
66857;BME280;53766;50.280;19.160;2023-01-30T09:30:20;97695.16;;;14.16;42.72
66857;BME280;53766;50.280;19.160;2023-01-30T09:32:47;97693.50;;;14.15;42.36
66857;BME280;53766;50.280;19.160;2023-01-30T09:35:14;97676.00;;;14.14;41.96
66857;BME280;53766;50.280;19.160;2023-01-30T09:37:49;97686.59;;;14.14;41.91
66857;BME280;53766;50.280;19.160;2023-01-30T09:40:20;97674.34;;;14.13;41.67
66857;BME280;53766;50.280;19.160;2023-01-30T09:48:49;97654.19;;;14.12;41.20
66857;BME280;53766;50.280;19.160;2023-01-30T09:52:13;97647.06;;;14.12;41.32
66857;BME280;53766;50.280;19.160;2023-01-30T09:54:44;97641.75;;;14.12;41.27
66857;BME280;53766;50.280;19.160;2023-01-30T09:57:22;97642.56;;;14.13;41.18
66857;BME280;53766;50.280;19.160;2023-01-30T10:00:16;97627.31;;;14.15;41.60
66857;BME280;53766;50.280;19.160;2023-01-30T10:03:00;97620.22;;;14.15;41.67
66857;BME280;53766;50.280;19.160;2023-01-30T10:16:29;97615.75;;;14.23;41.66
66857;BME280;53766;50.280;19.160;2023-01-30T10:24:57;97604.38;;;14.29;42.17
66857;BME280;53766;50.280;19.160;2023-01-30T10:27:28;97603.16;;;14.31;42.26
66857;BME280;53766;50.280;19.160;2023-01-30T10:29:59;97597.84;;;14.31;42.44
66857;BME280;53766;50.280;19.160;2023-01-30T10:32:48;97585.22;;;14.33;42.72
66857;BME280;53766;50.280;19.160;2023-01-30T10:35:22;97583.81;;;14.37;42.60
66857;BME280;53766;50.280;19.160;2023-01-30T10:38:06;97581.56;;;14.41;43.13
66857;BME280;53766;50.280;19.160;2023-01-30T10:40:41;97572.41;;;14.44;42.81
66857;BME280;53766;50.280;19.160;2023-01-30T10:48:37;97553.06;;;14.50;43.33
66857;BME280;53766;50.280;19.160;2023-01-30T10:54:12;97543.34;;;14.57;43.25
66857;BME280;53766;50.280;19.160;2023-01-30T10:56:59;97544.56;;;14.61;43.41
66857;BME280;53766;50.280;19.160;2023-01-30T11:02:01;97545.78;;;14.65;43.63
66857;BME280;53766;50.280;19.160;2023-01-30T11:04:39;97557.22;;;14.66;43.52
66857;BME280;53766;50.280;19.160;2023-01-30T11:07:11;97561.69;;;14.65;43.59
66857;BME280;53766;50.280;19.160;2023-01-30T11:09:40;97553.34;;;14.68;43.86
66857;BME280;53766;50.280;19.160;2023-01-30T11:12:08;97545.41;;;14.68;43.57
66857;BME280;53766;50.280;19.160;2023-01-30T11:15:04;97544.19;;;14.71;43.40
66857;BME280;53766;50.280;19.160;2023-01-30T11:20:12;97519.72;;;14.75;43.45
66857;BME280;53766;50.280;19.160;2023-01-30T11:25:17;97510.16;;;14.81;43.51
66857;BME280;53766;50.280;19.160;2023-01-30T11:27:54;97517.69;;;14.77;43.75
66857;BME280;53766;50.280;19.160;2023-01-30T11:30:26;97511.97;;;14.80;43.63
66857;BME280;53766;50.280;19.160;2023-01-30T11:33:05;97506.28;;;14.84;43.75
66857;BME280;53766;50.280;19.160;2023-01-30T11:35:41;97507.09;;;14.84;43.58
66857;BME280;53766;50.280;19.160;2023-01-30T11:38:19;97496.47;;;14.84;43.78
66857;BME280;53766;50.280;19.160;2023-01-30T11:40:46;97492.00;;;14.85;43.86
66857;BME280;53766;50.280;19.160;2023-01-30T11:43:14;97479.78;;;14.84;43.78
66857;BME280;53766;50.280;19.160;2023-01-30T11:45:44;97478.34;;;14.88;43.64
66857;BME280;53766;50.280;19.160;2023-01-30T11:48:18;97473.03;;;14.88;43.87
66857;BME280;53766;50.280;19.160;2023-01-30T11:51:08;97476.50;;;14.88;43.72
66857;BME280;53766;50.280;19.160;2023-01-30T11:53:43;97459.78;;;14.88;43.66
66857;BME280;53766;50.280;19.160;2023-01-30T11:56:32;97459.38;;;14.91;43.87
66857;BME280;53766;50.280;19.160;2023-01-30T11:59:06;97452.44;;;14.90;43.54
66857;BME280;53766;50.280;19.160;2023-01-30T12:01:35;97443.66;;;14.89;43.58
66857;BME280;53766;50.280;19.160;2023-01-30T12:04:05;97454.06;;;14.91;43.84
66857;BME280;53766;50.280;19.160;2023-01-30T12:06:36;97448.75;;;14.91;43.98
66857;BME280;53766;50.280;19.160;2023-01-30T12:09:04;97438.78;;;14.93;43.69
66857;BME280;53766;50.280;19.160;2023-01-30T12:17:15;97436.13;;;14.93;43.74
66857;BME280;53766;50.280;19.160;2023-01-30T12:20:05;97440.59;;;14.92;43.64
66857;BME280;53766;50.280;19.160;2023-01-30T12:22:44;97439.56;;;14.93;43.97
66857;BME280;53766;50.280;19.160;2023-01-30T12:25:19;97437.75;;;14.94;43.66
66857;BME280;53766;50.280;19.160;2023-01-30T12:27:54;97436.72;;;14.95;43.73
66857;BME280;53766;50.280;19.160;2023-01-30T12:33:00;97423.47;;;14.95;43.93
66857;BME280;53766;50.280;19.160;2023-01-30T12:41:33;97420.22;;;14.93;43.95
66857;BME280;53766;50.280;19.160;2023-01-30T12:52:25;97414.91;;;14.93;43.97
66857;BME280;53766;50.280;19.160;2023-01-30T12:57:46;97414.09;;;14.92;43.83
66857;BME280;53766;50.280;19.160;2023-01-30T13:00:37;97400.66;;;14.94;43.84
66857;BME280;53766;50.280;19.160;2023-01-30T13:03:23;97408.00;;;14.92;43.89
66857;BME280;53766;50.280;19.160;2023-01-30T13:08:55;97404.31;;;14.93;43.74
66857;BME280;53766;50.280;19.160;2023-01-30T13:14:09;97408.00;;;14.92;43.97
66857;BME280;53766;50.280;19.160;2023-01-30T13:18:06;97394.94;;;14.90;43.83
66857;BME280;53766;50.280;19.160;2023-01-30T13:23:17;97399.00;;;14.93;44.23
66857;BME280;53766;50.280;19.160;2023-01-30T13:25:53;97392.09;;;14.92;43.87
66857;BME280;53766;50.280;19.160;2023-01-30T13:28:27;97391.47;;;14.90;43.71
66857;BME280;53766;50.280;19.160;2023-01-30T13:30:55;97394.13;;;14.90;43.89
66857;BME280;53766;50.280;19.160;2023-01-30T13:33:32;97385.13;;;14.91;43.92
66857;BME280;53766;50.280;19.160;2023-01-30T13:39:11;97389.63;;;14.90;44.03
66857;BME280;53766;50.280;19.160;2023-01-30T13:41:42;97376.56;;;14.89;43.96
66857;BME280;53766;50.280;19.160;2023-01-30T13:44:25;97378.22;;;14.90;44.09
66857;BME280;53766;50.280;19.160;2023-01-30T13:46:54;97376.78;;;14.87;43.81
66857;BME280;53766;50.280;19.160;2023-01-30T13:49:38;97377.00;;;14.86;44.08
66857;BME280;53766;50.280;19.160;2023-01-30T13:52:24;97376.19;;;14.85;44.19
66857;BME280;53766;50.280;19.160;2023-01-30T14:00:36;97365.78;;;14.84;43.91
66857;BME280;53766;50.280;19.160;2023-01-30T14:08:29;97352.94;;;14.80;44.05
66857;BME280;53766;50.280;19.160;2023-01-30T14:10:57;97359.25;;;14.79;44.00
66857;BME280;53766;50.280;19.160;2023-01-30T14:13:25;97343.16;;;14.81;44.04
66857;BME280;53766;50.280;19.160;2023-01-30T14:15:55;97338.25;;;14.78;43.81
66857;BME280;53766;50.280;19.160;2023-01-30T14:18:27;97344.38;;;14.78;43.87
66857;BME280;53766;50.280;19.160;2023-01-30T14:21:18;97343.34;;;14.79;44.16
66857;BME280;53766;50.280;19.160;2023-01-30T14:23:57;97347.63;;;14.80;43.72
66857;BME280;53766;50.280;19.160;2023-01-30T14:34:47;97361.50;;;14.76;43.86
66857;BME280;53766;50.280;19.160;2023-01-30T14:39:53;97362.34;;;14.76;43.94
66857;BME280;53766;50.280;19.160;2023-01-30T14:42:26;97359.88;;;14.75;43.77
66857;BME280;53766;50.280;19.160;2023-01-30T14:45:13;97363.34;;;14.75;43.94
66857;BME280;53766;50.280;19.160;2023-01-30T14:47:41;97353.78;;;14.74;43.74
66857;BME280;53766;50.280;19.160;2023-01-30T14:50:21;97355.81;;;14.72;44.11
66857;BME280;53766;50.280;19.160;2023-01-30T14:52:53;97362.94;;;14.72;43.71
66857;BME280;53766;50.280;19.160;2023-01-30T14:55:25;97361.13;;;14.72;43.65
66857;BME280;53766;50.280;19.160;2023-01-30T14:57:57;97361.13;;;14.72;43.83
66857;BME280;53766;50.280;19.160;2023-01-30T15:00:28;97356.81;;;14.71;43.92
66857;BME280;53766;50.280;19.160;2023-01-30T15:03:02;97363.78;;;14.72;43.98
66857;BME280;53766;50.280;19.160;2023-01-30T15:05:33;97359.47;;;14.71;43.82
66857;BME280;53766;50.280;19.160;2023-01-30T15:08:06;97369.25;;;14.71;43.99
66857;BME280;53766;50.280;19.160;2023-01-30T15:14:04;97369.47;;;14.69;43.79
66857;BME280;53766;50.280;19.160;2023-01-30T15:19:27;97379.44;;;14.67;43.64
66857;BME280;53766;50.280;19.160;2023-01-30T15:27:57;97390.06;;;14.67;43.77